Time;durP1;ratioP1;P1;durP2;ratioP2;P2;SDS_P1;SDS_P2;PMS_P1;PMS_P2;Temp;Humidity;BMP_temperature;BMP_pressure;BME280_temperature;BME280_humidity;BME280_pressure;Samples;Min_cycle;Max_cycle;Signal;HPM_P1;HPM_P2
2022/04/26 03:36:12;;;;;;;;;;;;;;;;;;5075456;28;19989;-19
2022/04/26 03:38:08;;;;;;;;;;;;;;;;;;5070435;28;20259;-20
2022/04/26 03:40:35;;;;;;;;;;;;;;;;;;5075050;28;19945;-19
2022/04/26 03:43:02;;;;;;;;;;;;;;;;;;5074892;28;19913;-19
2022/04/26 03:45:30;;;;;;;;;;;;;;;;;;5057151;28;19917;-19
2022/04/26 03:47:58;;;;;;;;;;;;;;;;;;5074949;28;20042;-20
2022/04/26 03:50:26;;;;;;;;;;;;;;;;;;5075354;28;20003;-20
2022/04/26 03:52:54;;;;;;;;;;;;;;;;;;5074845;28;19924;-19
2022/04/26 03:55:21;;;;;;;;;;;;;;;;;;5074758;28;20028;-19
2022/04/26 03:57:48;;;;;;;;;;;;;;;;;;5074873;28;19918;-20
2022/04/26 04:00:15;;;;;;;;;;;;;;;;;;5056894;28;20422;-19
2022/04/26 04:02:47;;;;;;;;;;;;;;;;;;5075188;28;19970;-20
2022/04/26 04:05:13;;;;;;;;;;;;;;;;;;5074497;28;19964;-21
2022/04/26 04:07:42;;;;;;;;;;;;;;;;;;5074770;28;19940;-20
2022/04/26 04:10:08;;;;;;;;;;;;;;;;;;5074614;28;19962;-20
2022/04/26 04:15:25;;;;;;;;;;;;;;;;;;5075601;28;20358;-21
2022/04/26 04:17:51;;;;;;;;;;;;;;;;;;5078550;28;20325;-21
2022/04/26 04:20:17;;;;;;;;;;;;;;;;;;5078811;28;19913;-21
2022/04/26 04:22:44;;;;;;;;;;;;;;;;;;5078627;28;19915;-20
2022/04/26 04:25:13;;;;;;;;;;;;;;;;;;5078524;28;19928;-20
2022/04/26 04:27:39;;;;;;;;;;;;;;;;;;5079046;28;20007;-20
2022/04/26 04:30:05;;;;;;;;;;;;;;;;;;5060487;28;19916;-20
2022/04/26 04:32:31;;;;;;;;;;;;;;;;;;5078159;28;19909;-19
2022/04/26 04:34:57;;;;;;;;;;;;;;;;;;5078221;28;19912;-20
2022/04/26 04:37:23;;;;;;;;;;;;;;;;;;5078426;28;19913;-19
2022/04/26 04:39:49;;;;;;;;;;;;;;;;;;5078172;28;19920;-19
2022/04/26 04:42:15;;;;;;;;;;;;;;;;;;5078448;28;19909;-18
2022/04/26 04:44:41;;;;;;;;;;;;;;;;;;5077980;28;19928;-19
2022/04/26 04:47:08;;;;;;;;;;;;;;;;;;5077975;28;19909;-20
2022/04/26 04:49:34;;;;;;;;;;;;;;;;;;5078053;28;19919;-19
2022/04/26 04:52:00;;;;;;;;;;;;;;;;;;5078447;28;19908;-19
2022/04/26 04:54:26;;;;;;;;;;;;;;;;;;5077805;28;19947;-19
2022/04/26 04:56:52;;;;;;;;;;;;;;;;;;5077827;28;19932;-20
2022/04/26 04:59:18;;;;;;;;;;;;;;;;;;5077657;28;19912;-21
2022/04/26 05:01:44;;;;;;;;;;;;;;;;;;5078233;28;19908;-20
2022/04/26 05:04:10;;;;;;;;;;;;;;;;;;5078028;28;19920;-19
2022/04/26 05:06:37;;;;;;;;;;;;;;;;;;5078123;28;20323;-19
2022/04/26 05:09:03;;;;;;;;;;;;;;;;;;5077648;28;19912;-18
2022/04/26 05:11:29;;;;;;;;;;;;;;;;;;5078023;28;20247;-20
2022/04/26 05:13:55;;;;;;;;;;;;;;;;;;5077339;28;20054;-19
2022/04/26 05:16:21;;;;;;;;;;;;;;;;;;5077526;28;19908;-19
2022/04/26 05:18:47;;;;;;;;;;;;;;;;;;5077490;28;19952;-21
2022/04/26 05:21:13;;;;;;;;;;;;;;;;;;5077437;28;19913;-19
2022/04/26 05:26:24;;;;;;;;;;;;;;;;;;5077039;28;20346;-20
2022/04/26 05:28:50;;;;;;;;;;;;;;;;;;5077348;28;19913;-18
2022/04/26 05:31:16;;;;;;;;;;;;;;;;;;5076991;28;19923;-19
2022/04/26 05:33:43;;;;;;;;;;;;;;;;;;5059206;28;19920;-19
2022/04/26 05:36:09;;;;;;;;;;;;;;;;;;5076986;28;19908;-19
2022/04/26 05:38:35;;;;;;;;;;;;;;;;;;5077019;28;19947;-19
2022/04/26 05:41:01;;;;;;;;;;;;;;;;;;5077037;28;19930;-19
2022/04/26 05:43:27;;;;;;;;;;;;;;;;;;5076932;28;20003;-18
2022/04/26 05:45:53;;;;;;;;;;;;;;;;;;5059325;28;19923;-22
2022/04/26 05:48:19;;;;;;;;;;;;;;;;;;5076575;28;19974;-20
2022/04/26 05:50:45;;;;;;;;;;;;;;;;;;5077181;28;19917;-20
2022/04/26 05:53:11;;;;;;;;;;;;;;;;;;5059018;28;20233;-18
2022/04/26 05:55:39;;;;;;;;;;;;;;;;;;5076749;28;19912;-19
2022/04/26 05:58:05;;;;;;;;;;;;;;;;;;5076640;28;19912;-19
2022/04/26 06:00:31;;;;;;;;;;;;;;;;;;5058978;28;19923;-20
2022/04/26 06:02:57;;;;;;;;;;;;;;;;;;5076524;28;19955;-20
2022/04/26 06:05:23;;;;;;;;;;;;;;;;;;5076291;28;19920;-18
2022/04/26 06:07:49;;;;;;;;;;;;;;;;;;5058707;28;19919;-21
2022/04/26 06:10:15;;;;;;;;;;;;;;;;;;5076392;28;19936;-21
2022/04/26 06:12:44;;;;;;;;;;;;;;;;;;5075959;28;19908;-20
2022/04/26 06:15:10;;;;;;;;;;;;;;;;;;5076029;28;20373;-20
2022/04/26 06:17:36;;;;;;;;;;;;;;;;;;5076144;28;19936;-19
2022/04/26 06:20:02;;;;;;;;;;;;;;;;;;5075969;28;19920;-20
2022/04/26 06:22:28;;;;;;;;;;;;;;;;;;5075693;28;19912;-19
2022/04/26 06:24:54;;;;;;;;;;;;;;;;;;5075670;28;19969;-19
2022/04/26 06:27:20;;;;;;;;;;;;;;;;;;5057998;28;19974;-19
2022/04/26 06:29:47;;;;;;;;;;;;;;;;;;5075802;28;19912;-19
2022/04/26 06:32:13;;;;;;;;;;;;;;;;;;5075842;28;20181;-19
2022/04/26 06:34:39;;;;;;;;;;;;;;;;;;5075548;28;19915;-21
2022/04/26 06:37:05;;;;;;;;;;;;;;;;;;5075607;28;19935;-18
2022/04/26 06:39:31;;;;;;;;;;;;;;;;;;5057163;28;19913;-19
2022/04/26 06:41:57;;;;;;;;;;;;;;;;;;5075885;28;19927;-19
2022/04/26 06:44:25;;;;;;;;;;;;;;;;;;5058134;28;19916;-19
2022/04/26 06:46:51;;;;;;;;;;;;;;;;;;5075720;28;20374;-19
2022/04/26 06:49:17;;;;;;;;;;;;;;;;;;5075787;28;19962;-20
2022/04/26 06:51:44;;;;;;;;;;;;;;;;;;5075476;28;19919;-19
2022/04/26 06:54:10;;;;;;;;;;;;;;;;;;5075448;28;19924;-19
2022/04/26 06:56:37;;;;;;;;;;;;;;;;;;5075468;28;20016;-19
2022/04/26 06:59:04;;;;;;;;;;;;;;;;;;5057798;28;19913;-19
2022/04/26 07:01:31;;;;;;;;;;;;;;;;;;5057639;28;19978;-19
2022/04/26 07:04:01;;;;;;;;;;;;;;;;;;5074065;28;19928;-18
2022/04/26 07:06:27;;;;;;;;;;;;;;;;;;5075497;28;19909;-19
2022/04/26 07:08:53;;;;;;;;;;;;;;;;;;5075281;28;20373;-19
2022/04/26 07:11:19;;;;;;;;;;;;;;;;;;5075782;28;19920;-19
2022/04/26 07:13:45;;;;;;;;;;;;;;;;;;5075156;28;19916;-18
2022/04/26 07:16:11;;;;;;;;;;;;;;;;;;5075016;28;19928;-19
2022/04/26 07:18:37;;;;;;;;;;;;;;;;;;5075559;28;19924;-18
2022/04/26 07:21:03;;;;;;;;;;;;;;;;;;5075154;28;19909;-18
2022/04/26 07:23:29;;;;;;;;;;;;;;;;;;5074906;28;20251;-17
2022/04/26 07:25:56;;;;;;;;;;;;;;;;;;5075458;28;19923;-19
2022/04/26 07:28:23;;;;;;;;;;;;;;;;;;5056534;28;20176;-18
2022/04/26 07:30:49;;;;;;;;;;;;;;;;;;5074959;28;20003;-19
2022/04/26 07:36:00;;;;;;;;;;;;;;;;;;5074878;28;19962;-19
2022/04/26 07:38:26;;;;;;;;;;;;;;;;;;5074837;28;19913;-18
2022/04/26 07:40:54;;;;;;;;;;;;;;;;;;5074864;28;19913;-19
2022/04/26 07:43:21;;;;;;;;;;;;;;;;;;5074687;28;20204;-20
2022/04/26 07:45:47;;;;;;;;;;;;;;;;;;5075005;28;19921;-18
2022/04/26 07:48:16;;;;;;;;;;;;;;;;;;5074575;28;19923;-19
2022/04/26 07:50:42;;;;;;;;;;;;;;;;;;5074924;28;19920;-18
2022/04/26 07:53:08;;;;;;;;;;;;;;;;;;5074526;28;19912;-18
2022/04/26 07:55:34;;;;;;;;;;;;;;;;;;5074550;28;19923;-19
2022/04/26 07:58:00;;;;;;;;;;;;;;;;;;5074553;28;19920;-18
2022/04/26 08:00:26;;;;;;;;;;;;;;;;;;5074586;28;19920;-19
2022/04/26 08:02:52;;;;;;;;;;;;;;;;;;5074552;28;19923;-18
2022/04/26 08:05:19;;;;;;;;;;;;;;;;;;5073997;28;20270;-18
2022/04/26 08:07:45;;;;;;;;;;;;;;;;;;5074458;28;19920;-18
2022/04/26 08:10:11;;;;;;;;;;;;;;;;;;5074658;28;19912;-18
2022/04/26 08:12:37;;;;;;;;;;;;;;;;;;5074372;28;19942;-19
2022/04/26 08:15:03;;;;;;;;;;;;;;;;;;5056837;28;20362;-18
2022/04/26 08:17:29;;;;;;;;;;;;;;;;;;5074102;28;19909;-19
2022/04/26 08:19:56;;;;;;;;;;;;;;;;;;5074611;28;20300;-18
2022/04/26 08:22:22;;;;;;;;;;;;;;;;;;5074107;28;19966;-20
2022/04/26 08:27:33;;;;;;;;;;;;;;;;;;5074151;28;19965;-19
2022/04/26 08:29:59;;;;;;;;;;;;;;;;;;5074167;28;19909;-18
2022/04/26 08:32:28;;;;;;;;;;;;;;;;;;5074306;28;19942;-19
2022/04/26 08:34:54;;;;;;;;;;;;;;;;;;5074046;28;19917;-19
2022/04/26 08:37:20;;;;;;;;;;;;;;;;;;5056471;28;19909;-18
2022/04/26 08:39:47;;;;;;;;;;;;;;;;;;5074111;28;19912;-19
2022/04/26 08:42:14;;;;;;;;;;;;;;;;;;5073562;28;19995;-19
2022/04/26 08:44:40;;;;;;;;;;;;;;;;;;5055986;28;19916;-19
2022/04/26 08:52:36;;;;;;;;;;;;;;;;;;5073778;28;19924;-18
2022/04/26 08:55:02;;;;;;;;;;;;;;;;;;5074143;28;20025;-19
2022/04/26 08:57:28;;;;;;;;;;;;;;;;;;5073684;28;20294;-19
2022/04/26 08:59:54;;;;;;;;;;;;;;;;;;5073706;28;19982;-19
2022/04/26 09:02:21;;;;;;;;;;;;;;;;;;5076119;28;19908;-19
2022/04/26 09:04:47;;;;;;;;;;;;;;;;;;5052791;28;19956;-20
2022/04/26 09:07:13;;;;;;;;;;;;;;;;;;5036270;28;20344;-18
2022/04/26 09:09:39;;;;;;;;;;;;;;;;;;5037318;28;20225;-18
2022/04/26 09:12:05;;;;;;;;;;;;;;;;;;5037408;28;20382;-19
2022/04/26 09:14:32;;;;;;;;;;;;;;;;;;5037636;28;19913;-19
2022/04/26 09:16:58;;;;;;;;;;;;;;;;;;5037411;28;19909;-20
2022/04/26 09:19:25;;;;;;;;;;;;;;;;;;5037075;28;20420;-19
2022/04/26 09:21:51;;;;;;;;;;;;;;;;;;5037239;28;19962;-20
2022/04/26 09:24:17;;;;;;;;;;;;;;;;;;5037324;28;19974;-18
2022/04/26 09:26:43;;;;;;;;;;;;;;;;;;5036311;28;19922;-18
2022/04/26 09:29:09;;;;;;;;;;;;;;;;;;5037517;28;20256;-22
2022/04/26 09:31:35;;;;;;;;;;;;;;;;;;5037143;28;19917;-19
2022/04/26 09:34:07;;;;;;;;;;;;;;;;;;5037267;28;19913;-19
2022/04/26 09:36:35;;;;;;;;;;;;;;;;;;5037447;28;19932;-18
2022/04/26 09:39:01;;;;;;;;;;;;;;;;;;5037002;28;19992;-19
2022/04/26 09:47:09;;;;;;;;;;;;;;;;;;5037088;28;19924;-19
2022/04/26 09:49:35;;;;;;;;;;;;;;;;;;5036957;28;19999;-19
2022/04/26 09:52:01;;;;;;;;;;;;;;;;;;5036831;28;20327;-19
2022/04/26 09:54:29;;;;;;;;;;;;;;;;;;5037038;28;19979;-19
2022/04/26 09:56:55;;;;;;;;;;;;;;;;;;5036693;28;19917;-19
2022/04/26 09:59:21;;;;;;;;;;;;;;;;;;5036601;28;19913;-19
2022/04/26 10:01:47;;;;;;;;;;;;;;;;;;5036818;28;20028;-18
2022/04/26 10:04:13;;;;;;;;;;;;;;;;;;5047852;28;19997;-18
2022/04/26 10:06:39;;;;;;;;;;;;;;;;;;5058876;28;19924;-19
2022/04/26 10:09:05;;;;;;;;;;;;;;;;;;5077070;28;20311;-18
2022/04/26 10:11:31;;;;;;;;;;;;;;;;;;5076625;28;20011;-19
2022/04/26 10:13:58;;;;;;;;;;;;;;;;;;5075261;28;19912;-19
2022/04/26 10:16:24;;;;;;;;;;;;;;;;;;5076528;28;19920;-20
2022/04/26 10:18:50;;;;;;;;;;;;;;;;;;5076423;28;19912;-19
2022/04/26 10:21:16;;;;;;;;;;;;;;;;;;5076343;28;19908;-19
2022/04/26 10:23:42;;;;;;;;;;;;;;;;;;5076585;28;19912;-18
2022/04/26 10:26:09;;;;;;;;;;;;;;;;;;5076129;28;19912;-19
2022/04/26 10:28:36;;;;;;;;;;;;;;;;;;5076035;28;19917;-18
2022/04/26 10:31:03;;;;;;;;;;;;;;;;;;5075934;28;19919;-19
2022/04/26 10:33:29;;;;;;;;;;;;;;;;;;5075969;28;20189;-20
2022/04/26 10:35:55;;;;;;;;;;;;;;;;;;5075887;28;20011;-18
2022/04/26 10:38:22;;;;;;;;;;;;;;;;;;5058064;28;20050;-20
2022/04/26 10:40:48;;;;;;;;;;;;;;;;;;5076363;28;20037;-19
2022/04/26 10:43:14;;;;;;;;;;;;;;;;;;5075543;28;19931;-19
2022/04/26 10:45:41;;;;;;;;;;;;;;;;;;5075518;28;19970;-17
2022/04/26 10:48:07;;;;;;;;;;;;;;;;;;5057926;28;19934;-18
2022/04/26 10:50:33;;;;;;;;;;;;;;;;;;5075878;28;20319;-20
2022/04/26 10:52:59;;;;;;;;;;;;;;;;;;5075562;28;19969;-18
2022/04/26 10:55:25;;;;;;;;;;;;;;;;;;5075289;28;19913;-19
2022/04/26 10:57:52;;;;;;;;;;;;;;;;;;5075199;28;19908;-20
2022/04/26 11:00:18;;;;;;;;;;;;;;;;;;5075230;28;19946;-20
2022/04/26 11:02:44;;;;;;;;;;;;;;;;;;5075110;28;19919;-20
2022/04/26 11:05:10;;;;;;;;;;;;;;;;;;5074952;28;19920;-20
2022/04/26 11:07:36;;;;;;;;;;;;;;;;;;5075143;28;19913;-19
2022/04/26 11:10:04;;;;;;;;;;;;;;;;;;5074780;28;19966;-19
2022/04/26 11:12:32;;;;;;;;;;;;;;;;;;5075161;28;19908;-20
2022/04/26 11:14:59;;;;;;;;;;;;;;;;;;5074876;28;19912;-19
2022/04/26 11:17:25;;;;;;;;;;;;;;;;;;5074700;28;20049;-19
2022/04/26 11:19:51;;;;;;;;;;;;;;;;;;5074730;28;19916;-18
2022/04/26 11:22:18;;;;;;;;;;;;;;;;;;5074742;28;19991;-18
2022/04/26 11:30:13;;;;;;;;;;;;;;;;;;5074957;28;19927;-19
2022/04/26 11:32:45;;;;;;;;;;;;;;;;;;5074910;28;19940;-18
2022/04/26 11:35:11;;;;;;;;;;;;;;;;;;5075458;28;19916;-19
2022/04/26 11:37:37;;;;;;;;;;;;;;;;;;5075002;28;19999;-19
2022/04/26 11:40:03;;;;;;;;;;;;;;;;;;5074938;28;19919;-18
2022/04/26 11:42:30;;;;;;;;;;;;;;;;;;5057180;28;20252;-19
2022/04/26 11:44:56;;;;;;;;;;;;;;;;;;5074864;28;19916;-19
2022/04/26 11:47:23;;;;;;;;;;;;;;;;;;5075274;28;19962;-19
2022/04/26 11:49:49;;;;;;;;;;;;;;;;;;5075275;28;19944;-19
2022/04/26 11:52:15;;;;;;;;;;;;;;;;;;5074666;28;19913;-19
2022/04/26 11:54:41;;;;;;;;;;;;;;;;;;5074967;28;20007;-22
2022/04/26 11:57:08;;;;;;;;;;;;;;;;;;5075058;28;19908;-19
2022/04/26 11:59:35;;;;;;;;;;;;;;;;;;5074664;28;19908;-19
2022/04/26 12:02:01;;;;;;;;;;;;;;;;;;5074591;28;19912;-21
2022/04/26 12:04:27;;;;;;;;;;;;;;;;;;5074385;28;19920;-19
2022/04/26 12:06:57;;;;;;;;;;;;;;;;;;5075250;28;20227;-18
2022/04/26 12:09:26;;;;;;;;;;;;;;;;;;5074502;28;19966;-18
2022/04/26 12:11:52;;;;;;;;;;;;;;;;;;5074387;28;19966;-19
2022/04/26 12:14:18;;;;;;;;;;;;;;;;;;5074690;28;19912;-19
2022/04/26 12:16:45;;;;;;;;;;;;;;;;;;5074682;28;20278;-19
2022/04/26 12:19:11;;;;;;;;;;;;;;;;;;5074583;28;19908;-19
2022/04/26 12:21:37;;;;;;;;;;;;;;;;;;5074520;28;19922;-18
2022/04/26 12:24:03;;;;;;;;;;;;;;;;;;5074229;28;20276;-18
2022/04/26 12:26:29;;;;;;;;;;;;;;;;;;5074830;28;19913;-19
2022/04/26 12:28:56;;;;;;;;;;;;;;;;;;5074735;28;20350;-18
2022/04/26 12:31:22;;;;;;;;;;;;;;;;;;5074421;28;20049;-19
2022/04/26 12:33:48;;;;;;;;;;;;;;;;;;5074147;28;20290;-19
2022/04/26 12:36:14;;;;;;;;;;;;;;;;;;5057056;28;20351;-19
2022/04/26 12:38:40;;;;;;;;;;;;;;;;;;5078134;28;19915;-19
2022/04/26 12:41:06;;;;;;;;;;;;;;;;;;5077983;28;19956;-19
2022/04/26 12:43:32;;;;;;;;;;;;;;;;;;5060334;28;19920;-19
2022/04/26 12:45:58;;;;;;;;;;;;;;;;;;5078148;28;20312;-19
2022/04/26 12:51:09;;;;;;;;;;;;;;;;;;5078047;28;20008;-19
2022/04/26 12:53:35;;;;;;;;;;;;;;;;;;5060169;28;20365;-19
2022/04/26 12:56:01;;;;;;;;;;;;;;;;;;5078020;28;19909;-19
2022/04/26 12:58:27;;;;;;;;;;;;;;;;;;5077686;28;20251;-19
2022/04/26 13:00:53;;;;;;;;;;;;;;;;;;5077547;28;19966;-19
2022/04/26 13:03:19;;;;;;;;;;;;;;;;;;5059974;28;19948;-19
2022/04/26 13:05:45;;;;;;;;;;;;;;;;;;5077616;28;19978;-18
2022/04/26 13:08:11;;;;;;;;;;;;;;;;;;5077882;28;20355;-18
2022/04/26 13:10:37;;;;;;;;;;;;;;;;;;5060139;28;20325;-19
2022/04/26 13:13:05;;;;;;;;;;;;;;;;;;5077751;28;19920;-29
2022/04/26 13:15:31;;;;;;;;;;;;;;;;;;5078166;28;19909;-19
2022/04/26 13:17:59;;;;;;;;;;;;;;;;;;5077480;28;19920;-18
2022/04/26 13:20:25;;;;;;;;;;;;;;;;;;5077355;28;19973;-19
2022/04/26 13:22:51;;;;;;;;;;;;;;;;;;5077686;28;20009;-19
2022/04/26 13:25:17;;;;;;;;;;;;;;;;;;5078043;28;19916;-18
2022/04/26 13:27:45;;;;;;;;;;;;;;;;;;5077513;28;19909;-19
2022/04/26 13:30:11;;;;;;;;;;;;;;;;;;5077825;28;20004;-18
2022/04/26 13:32:37;;;;;;;;;;;;;;;;;;5059517;28;19936;-18
2022/04/26 13:35:05;;;;;;;;;;;;;;;;;;5077220;28;19920;-18
2022/04/26 13:37:31;;;;;;;;;;;;;;;;;;5077236;28;19908;-19
2022/04/26 13:39:59;;;;;;;;;;;;;;;;;;5077668;28;19912;-19
2022/04/26 13:42:27;;;;;;;;;;;;;;;;;;5077088;28;19928;-19
2022/04/26 13:44:53;;;;;;;;;;;;;;;;;;5076960;28;19917;-19
2022/04/26 13:47:19;;;;;;;;;;;;;;;;;;5077242;28;19920;-19
2022/04/26 13:49:46;;;;;;;;;;;;;;;;;;5076947;28;19924;-19
2022/04/26 13:52:13;;;;;;;;;;;;;;;;;;5059523;28;20373;-18
2022/04/26 13:54:41;;;;;;;;;;;;;;;;;;5076920;28;19909;-16
2022/04/26 13:57:07;;;;;;;;;;;;;;;;;;5059444;28;19912;-18
2022/04/26 13:59:33;;;;;;;;;;;;;;;;;;5076918;28;20003;-19
2022/04/26 14:01:59;;;;;;;;;;;;;;;;;;5076753;28;19912;-19
2022/04/26 14:04:25;;;;;;;;;;;;;;;;;;5076602;28;19924;-20
2022/04/26 14:06:51;;;;;;;;;;;;;;;;;;5077218;28;19913;-17
2022/04/26 14:09:17;;;;;;;;;;;;;;;;;;5077293;28;19916;-18
2022/04/26 14:11:44;;;;;;;;;;;;;;;;;;5076707;28;20335;-19
2022/04/26 14:22:30;;;;;;;;;;;;;;;;;;5076460;28;20326;-19
2022/04/26 14:24:56;;;;;;;;;;;;;;;;;;5076430;28;19916;-19
2022/04/26 14:27:24;;;;;;;;;;;;;;;;;;5076573;28;20387;-18
2022/04/26 14:29:50;;;;;;;;;;;;;;;;;;5076050;28;19931;-19
2022/04/26 14:32:16;;;;;;;;;;;;;;;;;;5075836;28;19916;-18
2022/04/26 14:34:43;;;;;;;;;;;;;;;;;;5075980;28;19959;-19
2022/04/26 14:37:09;;;;;;;;;;;;;;;;;;5075782;28;19919;-18
2022/04/26 14:39:36;;;;;;;;;;;;;;;;;;5075945;28;19916;-19
2022/04/26 14:42:03;;;;;;;;;;;;;;;;;;5058213;28;19908;-18
2022/04/26 14:44:29;;;;;;;;;;;;;;;;;;5076566;28;19912;-18
2022/04/26 14:46:55;;;;;;;;;;;;;;;;;;5075737;28;19972;-18
2022/04/26 14:49:21;;;;;;;;;;;;;;;;;;5075628;28;19909;-18
2022/04/26 14:51:47;;;;;;;;;;;;;;;;;;5076130;28;19920;-19
2022/04/26 14:54:13;;;;;;;;;;;;;;;;;;5075693;28;19921;-17
2022/04/26 14:56:39;;;;;;;;;;;;;;;;;;5057698;28;19966;-19
2022/04/26 14:59:07;;;;;;;;;;;;;;;;;;5074661;28;20263;-19
2022/04/26 15:01:33;;;;;;;;;;;;;;;;;;5075358;28;19995;-20
2022/04/26 15:04:00;;;;;;;;;;;;;;;;;;5074916;28;19916;-19
2022/04/26 15:06:27;;;;;;;;;;;;;;;;;;5075622;28;19916;-19
2022/04/26 15:11:39;;;;;;;;;;;;;;;;;;5074842;28;19931;-21
2022/04/26 15:16:50;;;;;;;;;;;;;;;;;;5074795;28;19945;-19
2022/04/26 15:19:17;;;;;;;;;;;;;;;;;;5075094;28;19909;-19
2022/04/26 15:21:43;;;;;;;;;;;;;;;;;;5074559;28;19912;-19
2022/04/26 15:24:09;;;;;;;;;;;;;;;;;;5074518;28;19966;-22
2022/04/26 15:26:36;;;;;;;;;;;;;;;;;;5074637;28;19912;-19
2022/04/26 15:29:07;;;;;;;;;;;;;;;;;;5074610;28;19923;-19
2022/04/26 15:31:34;;;;;;;;;;;;;;;;;;5074856;28;20005;-18
2022/04/26 15:34:00;;;;;;;;;;;;;;;;;;5074483;28;19916;-20
2022/04/26 15:36:26;;;;;;;;;;;;;;;;;;5074499;28;20126;-19
2022/04/26 15:38:58;;;;;;;;;;;;;;;;;;5074986;28;20338;-20
2022/04/26 15:41:26;;;;;;;;;;;;;;;;;;5074674;28;20003;-19
2022/04/26 15:43:52;;;;;;;;;;;;;;;;;;5074809;28;20216;-20
2022/04/26 15:46:18;;;;;;;;;;;;;;;;;;5074536;28;19913;-17
2022/04/26 15:48:48;;;;;;;;;;;;;;;;;;5074563;28;20239;-19
2022/04/26 15:51:14;;;;;;;;;;;;;;;;;;5075300;28;19912;-20
2022/04/26 15:53:40;;;;;;;;;;;;;;;;;;5074656;28;19938;-20
2022/04/26 15:56:06;;;;;;;;;;;;;;;;;;5074966;28;19912;-19
2022/04/26 15:58:33;;;;;;;;;;;;;;;;;;5074430;28;19920;-19
2022/04/26 16:00:59;;;;;;;;;;;;;;;;;;5074516;28;20267;-19
2022/04/26 16:03:25;;;;;;;;;;;;;;;;;;5074536;28;19971;-19
2022/04/26 16:05:51;;;;;;;;;;;;;;;;;;5074252;28;19960;-19
2022/04/26 16:08:18;;;;;;;;;;;;;;;;;;5074759;28;19909;-18
2022/04/26 16:21:43;;;;;;;;;;;;;;;;;;5074624;28;19939;-19
2022/04/26 16:24:09;;;;;;;;;;;;;;;;;;5074595;28;19923;-19
2022/04/26 16:26:36;;;;;;;;;;;;;;;;;;5074490;28;19912;-18
2022/04/26 16:29:03;;;;;;;;;;;;;;;;;;5074489;28;19920;-19
2022/04/26 16:31:30;;;;;;;;;;;;;;;;;;5056736;28;19908;-18
2022/04/26 16:33:56;;;;;;;;;;;;;;;;;;5074234;28;19916;-18
2022/04/26 16:36:22;;;;;;;;;;;;;;;;;;5074254;28;19909;-18
2022/04/26 16:38:48;;;;;;;;;;;;;;;;;;5074361;28;19913;-19
2022/04/26 16:41:14;;;;;;;;;;;;;;;;;;5074284;28;19915;-18
2022/04/26 16:43:40;;;;;;;;;;;;;;;;;;5074065;28;20366;-18
2022/04/26 16:46:06;;;;;;;;;;;;;;;;;;5056342;28;19913;-19
2022/04/26 16:48:32;;;;;;;;;;;;;;;;;;5073934;28;20003;-20
2022/04/26 16:50:58;;;;;;;;;;;;;;;;;;5074089;28;19959;-19
2022/04/26 16:53:24;;;;;;;;;;;;;;;;;;5073973;28;19987;-20
2022/04/26 16:55:50;;;;;;;;;;;;;;;;;;5074163;28;19912;-18
2022/04/26 16:58:18;;;;;;;;;;;;;;;;;;5056183;28;19978;-27
2022/04/26 17:00:45;;;;;;;;;;;;;;;;;;5074197;28;19912;-18
2022/04/26 17:03:14;;;;;;;;;;;;;;;;;;5056284;28;19920;-18
2022/04/26 17:05:53;;;;;;;;;;;;;;;;;;5073787;28;19928;-18
2022/04/26 17:08:20;;;;;;;;;;;;;;;;;;5074439;28;19923;-19
2022/04/26 17:10:46;;;;;;;;;;;;;;;;;;5073969;28;19923;-18
2022/04/26 17:13:12;;;;;;;;;;;;;;;;;;5073817;28;20014;-19
2022/04/26 17:15:38;;;;;;;;;;;;;;;;;;5055986;28;20041;-28
2022/04/26 17:18:04;;;;;;;;;;;;;;;;;;5074109;28;19913;-18
2022/04/26 17:20:33;;;;;;;;;;;;;;;;;;5074056;28;20366;-19
2022/04/26 17:22:59;;;;;;;;;;;;;;;;;;5075738;28;19995;-19
2022/04/26 17:25:25;;;;;;;;;;;;;;;;;;5077609;28;19982;-19
2022/04/26 17:27:52;;;;;;;;;;;;;;;;;;5060344;28;19913;-18
2022/04/26 17:30:18;;;;;;;;;;;;;;;;;;5059731;28;19962;-20
2022/04/26 17:32:45;;;;;;;;;;;;;;;;;;5077287;28;19913;-20
2022/04/26 17:35:11;;;;;;;;;;;;;;;;;;5077305;28;19920;-19
2022/04/26 17:37:38;;;;;;;;;;;;;;;;;;5077129;28;19991;-19
2022/04/26 17:40:04;;;;;;;;;;;;;;;;;;5077281;28;20337;-19
2022/04/26 17:42:34;;;;;;;;;;;;;;;;;;5077058;28;19947;-19
2022/04/26 17:45:00;;;;;;;;;;;;;;;;;;5059019;28;19981;-20
2022/04/26 17:47:27;;;;;;;;;;;;;;;;;;5076734;28;19958;-20
2022/04/26 17:49:53;;;;;;;;;;;;;;;;;;5076576;28;19912;-20
2022/04/26 17:52:19;;;;;;;;;;;;;;;;;;5076662;28;19920;-19
2022/04/26 17:57:30;;;;;;;;;;;;;;;;;;5076485;28;20295;-18
2022/04/26 17:59:56;;;;;;;;;;;;;;;;;;5076824;28;19912;-19
2022/04/26 18:02:23;;;;;;;;;;;;;;;;;;5076259;28;19909;-19
2022/04/26 18:04:49;;;;;;;;;;;;;;;;;;5076265;28;19920;-18
2022/04/26 18:07:16;;;;;;;;;;;;;;;;;;5076297;28;19995;-19
2022/04/26 18:09:43;;;;;;;;;;;;;;;;;;5058638;28;19913;-19
2022/04/26 18:12:11;;;;;;;;;;;;;;;;;;5076293;28;19908;-20
2022/04/26 18:14:37;;;;;;;;;;;;;;;;;;5076170;28;19966;-21
2022/04/26 18:17:03;;;;;;;;;;;;;;;;;;5076083;28;19938;-20
2022/04/26 18:19:30;;;;;;;;;;;;;;;;;;5076035;28;19931;-18
2022/04/26 18:21:56;;;;;;;;;;;;;;;;;;5076665;28;19995;-18
2022/04/26 18:24:22;;;;;;;;;;;;;;;;;;5075876;28;19916;-19
2022/04/26 18:26:48;;;;;;;;;;;;;;;;;;5076126;28;19909;-18
2022/04/26 18:29:19;;;;;;;;;;;;;;;;;;5076631;28;19924;-19
2022/04/26 18:31:46;;;;;;;;;;;;;;;;;;5075955;28;19978;-18
2022/04/26 18:34:15;;;;;;;;;;;;;;;;;;5074804;28;19970;-18
2022/04/26 18:36:41;;;;;;;;;;;;;;;;;;5076018;28;20434;-20
2022/04/26 18:39:08;;;;;;;;;;;;;;;;;;5076138;28;19912;-19
2022/04/26 18:41:35;;;;;;;;;;;;;;;;;;5075885;28;19918;-20
2022/04/26 18:44:02;;;;;;;;;;;;;;;;;;5075771;28;20007;-18
2022/04/26 18:46:28;;;;;;;;;;;;;;;;;;5075799;28;19966;-18
2022/04/26 18:48:54;;;;;;;;;;;;;;;;;;5075791;28;20251;-18
2022/04/26 18:51:20;;;;;;;;;;;;;;;;;;5075837;28;19913;-18
2022/04/26 18:53:46;;;;;;;;;;;;;;;;;;5075635;28;20061;-18
2022/04/26 18:56:13;;;;;;;;;;;;;;;;;;5075727;28;20011;-18
2022/04/26 18:58:39;;;;;;;;;;;;;;;;;;5075721;28;19913;-18
2022/04/26 19:01:05;;;;;;;;;;;;;;;;;;5075947;28;19917;-18
2022/04/26 19:03:32;;;;;;;;;;;;;;;;;;5057939;28;19909;-18
2022/04/26 19:05:59;;;;;;;;;;;;;;;;;;5075356;28;19970;-20
2022/04/26 19:08:26;;;;;;;;;;;;;;;;;;5075531;28;19917;-18
2022/04/26 19:13:37;;;;;;;;;;;;;;;;;;5075407;28;19970;-19
2022/04/26 19:16:03;;;;;;;;;;;;;;;;;;5075641;28;20259;-19
2022/04/26 19:18:29;;;;;;;;;;;;;;;;;;5075461;28;19920;-18
2022/04/26 19:20:56;;;;;;;;;;;;;;;;;;5075324;28;19923;-17
2022/04/26 19:23:22;;;;;;;;;;;;;;;;;;5075416;28;19909;-19
2022/04/26 19:25:49;;;;;;;;;;;;;;;;;;5074992;28;20223;-20
2022/04/26 19:28:15;;;;;;;;;;;;;;;;;;5075652;28;20282;-18
2022/04/26 19:30:42;;;;;;;;;;;;;;;;;;5075060;28;19913;-19
2022/04/26 19:33:09;;;;;;;;;;;;;;;;;;5075329;28;19919;-19
2022/04/26 19:35:37;;;;;;;;;;;;;;;;;;5074789;28;20050;-18
2022/04/26 19:38:03;;;;;;;;;;;;;;;;;;5074867;28;19909;-18
2022/04/26 19:40:30;;;;;;;;;;;;;;;;;;5074776;28;19923;-18
2022/04/26 19:42:56;;;;;;;;;;;;;;;;;;5074623;28;19912;-19
2022/04/26 19:45:22;;;;;;;;;;;;;;;;;;5074253;28;19970;-23
2022/04/26 19:47:48;;;;;;;;;;;;;;;;;;5074688;28;19919;-19
2022/04/26 19:52:59;;;;;;;;;;;;;;;;;;5074725;28;19955;-19
2022/04/26 19:55:26;;;;;;;;;;;;;;;;;;5075046;28;19917;-20
2022/04/26 19:57:52;;;;;;;;;;;;;;;;;;5074446;28;19956;-18
2022/04/26 20:00:19;;;;;;;;;;;;;;;;;;5074852;28;20440;-19
2022/04/26 20:02:45;;;;;;;;;;;;;;;;;;5074261;28;20007;-20
2022/04/26 20:05:11;;;;;;;;;;;;;;;;;;5074189;28;19932;-19
2022/04/26 20:07:37;;;;;;;;;;;;;;;;;;5074644;28;19912;-19
2022/04/26 20:10:03;;;;;;;;;;;;;;;;;;5056778;28;19962;-19
2022/04/26 20:12:30;;;;;;;;;;;;;;;;;;5056420;28;20001;-19
2022/04/26 20:14:56;;;;;;;;;;;;;;;;;;5074256;28;19927;-20
2022/04/26 20:17:22;;;;;;;;;;;;;;;;;;5056482;28;19935;-18
2022/04/26 20:19:51;;;;;;;;;;;;;;;;;;5074642;28;19912;-20
2022/04/26 20:22:17;;;;;;;;;;;;;;;;;;5074365;28;20211;-19
2022/04/26 20:24:43;;;;;;;;;;;;;;;;;;5074150;28;20267;-20
2022/04/26 20:29:54;;;;;;;;;;;;;;;;;;5074533;28;19939;-19
2022/04/26 20:32:20;;;;;;;;;;;;;;;;;;5074271;28;20309;-19
2022/04/26 20:34:46;;;;;;;;;;;;;;;;;;5074168;28;19931;-19
2022/04/26 20:37:12;;;;;;;;;;;;;;;;;;5074300;28;20003;-19
2022/04/26 20:39:38;;;;;;;;;;;;;;;;;;5074613;28;20379;-20
2022/04/26 20:42:04;;;;;;;;;;;;;;;;;;5074160;28;19909;-20
2022/04/26 20:44:30;;;;;;;;;;;;;;;;;;5056454;28;19964;-19
2022/04/26 20:46:57;;;;;;;;;;;;;;;;;;5074436;28;19999;-19
2022/04/26 20:49:23;;;;;;;;;;;;;;;;;;5074146;28;19919;-19
2022/04/26 20:51:49;;;;;;;;;;;;;;;;;;5074397;28;19999;-19
2022/04/26 20:54:15;;;;;;;;;;;;;;;;;;5074199;28;19922;-20
2022/04/26 20:56:41;;;;;;;;;;;;;;;;;;5074428;28;20228;-19
2022/04/26 20:59:07;;;;;;;;;;;;;;;;;;5077719;28;19920;-19
2022/04/26 21:01:35;;;;;;;;;;;;;;;;;;5077704;28;19909;-18
2022/04/26 21:04:02;;;;;;;;;;;;;;;;;;5077448;28;19917;-18
2022/04/26 21:06:28;;;;;;;;;;;;;;;;;;5078458;28;19919;-20
2022/04/26 21:08:54;;;;;;;;;;;;;;;;;;5077666;28;19912;-19
2022/04/26 21:11:20;;;;;;;;;;;;;;;;;;5077911;28;19909;-19
2022/04/26 21:13:46;;;;;;;;;;;;;;;;;;5077682;28;19912;-20
2022/04/26 21:16:12;;;;;;;;;;;;;;;;;;5077424;28;20302;-19
2022/04/26 21:18:38;;;;;;;;;;;;;;;;;;5077532;28;19923;-19
2022/04/26 21:21:04;;;;;;;;;;;;;;;;;;5077806;28;19970;-19